Time;durP1;ratioP1;P1;durP2;ratioP2;P2;SDS_P1;SDS_P2;PMS_P1;PMS_P2;Temp;Humidity;BMP_temperature;BMP_pressure;BME280_temperature;BME280_humidity;BME280_pressure;Samples;Min_cycle;Max_cycle;Signal;HPM_P1;HPM_P2
2022/02/01 00:01:36;;;;;;;67.17;26.30;;;;;;;0.06;84.13;97909.28;2261074;78;21317;-81
2022/02/01 00:11:27;;;;;;;64.97;23.70;;;;;;;-0.11;83.94;97912.45;2291228;77;21030;-80
2022/02/01 00:14:28;;;;;;;65.00;23.27;;;;;;;-0.20;83.78;97905.28;2289070;77;21055;-80
2022/02/01 00:34:03;;;;;;;66.83;24.83;;;;;;;-0.54;84.08;97927.44;2291332;77;21004;-82
2022/02/01 00:36:55;;;;;;;68.27;25.73;;;;;;;-0.58;83.91;97931.09;2288873;77;21016;-83
2022/02/01 00:39:57;;;;;;;59.67;25.17;;;;;;;-0.61;83.77;97932.25;2290964;77;21035;-82
2022/02/01 00:42:55;;;;;;;70.10;25.37;;;;;;;-0.65;83.71;97938.53;2290655;77;21068;-82
2022/02/01 00:45:55;;;;;;;81.73;31.27;;;;;;;-0.70;83.58;97935.31;2291422;78;21364;-82
2022/02/01 00:48:56;;;;;;;73.77;27.83;;;;;;;-0.73;83.42;97932.62;2291351;78;20944;-81
2022/02/01 00:51:56;;;;;;;73.00;29.33;;;;;;;-0.75;83.26;97938.97;2291497;78;21350;-82
2022/02/01 00:54:57;;;;;;;74.87;30.87;;;;;;;-0.83;83.16;97942.91;2291544;78;20991;-82
2022/02/01 00:57:57;;;;;;;75.90;29.63;;;;;;;-0.86;83.25;97945.75;2291524;78;20909;-82
2022/02/01 01:00:58;;;;;;;72.37;25.63;;;;;;;-0.89;83.24;97952.86;2291648;78;20954;-82
2022/02/01 01:03:58;;;;;;;61.77;22.70;;;;;;;-0.89;83.56;97957.98;2291573;78;20987;-82
2022/02/01 01:06:59;;;;;;;54.37;22.17;;;;;;;-0.87;83.57;97953.80;2291650;78;20960;-81
2022/02/01 01:10:01;;;;;;;61.43;22.47;;;;;;;-0.85;83.65;97950.06;2291899;78;20897;-81
2022/02/01 01:13:32;;;;;;;57.80;22.83;;;;;;;-0.84;83.58;97962.94;2290630;78;21064;-82
2022/02/01 01:45:44;;;;;;;59.00;25.27;;;;;;;1.03;77.01;97966.79;2291787;77;21012;-81
2022/02/01 01:55:14;;;;;;;65.80;26.93;;;;;;;-0.06;78.99;97993.03;2291805;77;21368;-81
2022/02/01 01:58:14;;;;;;;100.23;42.70;;;;;;;-0.28;79.18;97993.87;2291833;78;20885;-81
2022/02/01 02:01:15;;;;;;;91.60;47.43;;;;;;;1.67;100.00;97988.25;2291404;78;20913;-81
2022/02/01 02:04:15;;;;;;;80.27;33.47;;;;;;;5.21;100.00;97975.67;2291536;78;21328;-81
2022/02/01 02:07:16;;;;;;;71.20;31.60;;;;;;;4.09;79.25;97975.83;2291709;78;21320;-81
2022/02/01 02:10:17;;;;;;;63.37;27.97;;;;;;;2.69;76.17;97981.58;2291710;78;20905;-81
2022/02/01 02:16:20;;;;;;;64.57;27.73;;;;;;;1.04;75.89;97999.38;2269019;78;21012;-81
2022/02/01 02:19:21;;;;;;;70.13;30.43;;;;;;;0.57;76.60;97996.34;2291644;78;20913;-81
2022/02/01 02:22:22;;;;;;;72.00;28.73;;;;;;;0.22;76.80;98003.99;2291596;78;20931;-81
2022/02/01 02:25:23;;;;;;;77.63;30.80;;;;;;;-0.10;77.09;98003.98;2291689;78;20936;-81
2022/02/01 02:28:23;;;;;;;68.63;30.57;;;;;;;-0.31;78.00;98011.70;2291689;78;20869;-80
2022/02/01 02:31:24;;;;;;;68.33;28.97;;;;;;;-0.52;78.47;98015.53;2291725;78;21285;-80
2022/02/01 02:34:24;;;;;;;73.90;29.90;;;;;;;-0.63;79.04;98027.43;2291556;78;21303;-80
2022/02/01 02:37:30;;;;;;;69.00;27.50;;;;;;;-0.67;79.32;98040.12;2291711;78;21343;-81
2022/02/01 02:46:57;;;;;;;75.87;31.47;;;;;;;-0.84;81.17;98056.86;2291756;77;21327;-81
2022/02/01 02:49:58;;;;;;;75.43;28.07;;;;;;;-0.93;81.76;98060.27;2291511;78;20933;-82
2022/02/01 02:52:58;;;;;;;84.40;30.27;;;;;;;-1.00;82.72;98060.41;2291578;78;21328;-82
2022/02/01 02:55:59;;;;;;;80.70;29.30;;;;;;;-1.08;83.66;98065.59;2291706;78;21296;-82
2022/02/01 02:58:59;;;;;;;74.23;28.40;;;;;;;-1.16;83.90;98067.81;2291471;78;21308;-82
2022/02/01 03:02:00;;;;;;;82.27;29.27;;;;;;;-1.19;84.05;98068.95;2291799;78;20964;-82
2022/02/01 03:05:00;;;;;;;91.17;32.37;;;;;;;-1.20;84.17;98077.84;2291291;78;20913;-80
2022/02/01 03:08:00;;;;;;;99.27;33.17;;;;;;;-1.23;84.27;98079.87;2291654;78;20928;-81
2022/02/01 03:11:05;;;;;;;88.03;32.00;;;;;;;-1.27;84.93;98080.94;2291934;77;20948;-81
2022/02/01 03:14:13;;;;;;;91.37;32.07;;;;;;;-1.33;85.02;98082.41;2298292;77;21368;-82
2022/02/01 03:20:25;;;;;;;91.77;34.77;;;;;;;-1.37;84.94;98077.95;2291678;77;21024;-81
2022/02/01 03:23:25;;;;;;;92.80;31.57;;;;;;;-1.34;85.17;98087.47;2291554;78;20943;-82
2022/02/01 03:26:26;;;;;;;92.20;34.00;;;;;;;-1.32;85.32;98096.97;2291942;78;20897;-80
2022/02/01 03:29:26;;;;;;;76.50;32.20;;;;;;;-1.36;85.51;98100.19;2292129;78;20908;-81
2022/02/01 03:32:27;;;;;;;96.67;34.40;;;;;;;-1.41;85.51;98106.78;2291800;78;20893;-82
2022/02/01 03:35:27;;;;;;;90.23;34.53;;;;;;;-1.42;85.46;98110.15;2290721;78;20939;-83
2022/02/01 03:38:28;;;;;;;87.63;31.27;;;;;;;-1.42;85.48;98112.71;2291125;77;20951;-83
2022/02/01 03:41:28;;;;;;;77.30;32.57;;;;;;;-1.42;85.57;98117.83;2292740;77;20985;-82
2022/02/01 03:44:29;;;;;;;80.83;31.23;;;;;;;-1.43;85.39;98114.80;2298719;77;21048;-82
2022/02/01 03:47:32;;;;;;;75.60;29.20;;;;;;;-1.41;85.61;98113.19;2299238;77;20909;-80
2022/02/01 03:50:32;;;;;;;80.77;30.93;;;;;;;-1.42;85.48;98113.99;2298189;77;21052;-81
2022/02/01 03:53:32;;;;;;;76.67;31.83;;;;;;;-1.42;85.69;98122.95;2297299;77;21323;-82
2022/02/01 03:56:33;;;;;;;76.57;31.13;;;;;;;-1.43;85.49;98121.20;2291126;78;21319;-82
2022/02/01 03:59:33;;;;;;;76.07;31.73;;;;;;;-1.42;85.56;98126.79;2291393;78;20965;-81
2022/02/01 04:02:34;;;;;;;72.40;30.23;;;;;;;-1.43;85.80;98113.52;2291811;78;20948;-82
2022/02/01 04:05:34;;;;;;;71.70;30.70;;;;;;;-1.44;85.75;98111.77;2284211;78;21017;-83
2022/02/01 04:08:35;;;;;;;80.00;29.83;;;;;;;-1.45;85.73;98101.05;2281796;78;20910;-81
2022/02/01 04:11:35;;;;;;;81.27;29.33;;;;;;;-1.43;85.49;98104.96;2281580;78;20954;-83
2022/02/01 04:14:36;;;;;;;70.07;28.50;;;;;;;-1.44;85.34;98107.92;2281378;78;20961;-82
2022/02/01 04:17:38;;;;;;;68.40;30.23;;;;;;;-1.49;85.53;98119.63;2281740;78;20957;-83
2022/02/01 04:20:39;;;;;;;74.80;29.87;;;;;;;-1.55;85.81;98116.78;2281798;78;21294;-81
2022/02/01 04:23:39;;;;;;;67.50;28.73;;;;;;;-1.63;85.72;98115.55;2281972;78;20974;-83
2022/02/01 04:26:40;;;;;;;67.03;29.23;;;;;;;-1.76;85.52;98115.33;2282204;78;20930;-82
2022/02/01 04:29:45;;;;;;;70.87;27.93;;;;;;;-1.86;85.69;98111.86;2281825;78;20956;-82
2022/02/01 04:32:42;;;;;;;64.77;27.13;;;;;;;-1.98;85.71;98109.58;2280103;78;21028;-82
2022/02/01 04:35:43;;;;;;;66.23;29.77;;;;;;;-2.08;85.76;98111.61;2281361;78;20938;-82
2022/02/01 04:38:51;;;;;;;66.93;28.60;;;;;;;-2.18;85.55;98102.61;2281731;78;20906;-82
2022/02/01 04:41:47;;;;;;;67.77;28.03;;;;;;;-2.28;85.76;98108.95;2281030;78;21002;-82
2022/02/01 04:44:48;;;;;;;66.23;26.63;;;;;;;-2.35;85.86;98115.84;2281129;78;21049;-82
2022/02/01 04:47:51;;;;;;;59.63;25.17;;;;;;;-2.44;86.02;98110.67;2280726;78;21057;-82
2022/02/01 04:50:52;;;;;;;65.67;28.07;;;;;;;-2.53;85.85;98120.02;2281285;78;20985;-82
2022/02/01 04:53:52;;;;;;;65.07;27.20;;;;;;;-2.56;85.99;98128.81;2281377;78;20953;-82
2022/02/01 04:56:53;;;;;;;57.17;25.90;;;;;;;-2.60;85.72;98115.00;2281320;78;20937;-82
2022/02/01 04:59:53;;;;;;;69.67;26.73;;;;;;;-2.61;85.76;98114.48;2280831;78;20957;-82
2022/02/01 05:02:53;;;;;;;57.27;23.53;;;;;;;-2.60;85.88;98126.90;2280837;78;20962;-82
2022/02/01 05:05:56;;;;;;;70.83;29.13;;;;;;;-2.59;85.77;98118.44;2287142;77;21007;-81
2022/02/01 05:08:56;;;;;;;63.33;26.30;;;;;;;-2.59;86.03;98119.71;2288825;78;21046;-81
2022/02/01 05:12:00;;;;;;;63.23;25.17;;;;;;;-2.57;85.93;98115.16;2289498;78;21026;-80
2022/02/01 05:15:05;;;;;;;59.27;25.60;;;;;;;-2.51;86.19;98122.66;2289300;78;21068;-81
2022/02/01 05:18:02;;;;;;;77.37;28.87;;;;;;;-2.47;86.18;98127.13;2288510;77;21047;-81
2022/02/01 05:21:09;;;;;;;63.73;27.00;;;;;;;-2.46;86.11;98119.94;2289589;78;20944;-81
2022/02/01 05:24:09;;;;;;;70.13;27.77;;;;;;;-2.44;86.00;98128.55;2287929;78;21060;-81
2022/02/01 05:27:09;;;;;;;74.50;30.83;;;;;;;-2.40;85.98;98126.23;2288929;78;22059;-80
2022/02/01 05:30:10;;;;;;;55.50;24.63;;;;;;;-2.31;86.16;98134.36;2289894;78;21016;-80
2022/02/01 05:33:10;;;;;;;78.57;30.90;;;;;;;-2.23;86.35;98141.14;2289034;78;20912;-80
2022/02/01 05:36:11;;;;;;;77.97;30.90;;;;;;;-2.16;85.97;98142.33;2289848;78;21015;-81
2022/02/01 05:39:11;;;;;;;82.33;31.77;;;;;;;-2.10;86.01;98148.62;2290303;78;20951;-80
2022/02/01 05:42:16;;;;;;;79.90;29.03;;;;;;;-2.01;86.01;98158.02;2290138;78;21509;-79
2022/02/01 05:45:14;;;;;;;66.17;28.23;;;;;;;-1.94;85.85;98158.80;2288662;77;21386;-80
2022/02/01 05:48:14;;;;;;;71.90;27.60;;;;;;;-1.89;85.74;98159.43;2288201;78;20959;-81
2022/02/01 05:51:15;;;;;;;69.83;28.27;;;;;;;-1.82;85.71;98171.31;2289849;78;20971;-81
2022/02/01 05:54:15;;;;;;;71.37;27.47;;;;;;;-1.79;85.48;98175.30;2289082;78;21364;-81
2022/02/01 05:57:16;;;;;;;73.13;30.37;;;;;;;-1.68;85.78;98184.81;2289797;78;21319;-81
2022/02/01 06:00:17;;;;;;;64.73;25.93;;;;;;;-1.63;85.28;98189.75;2290266;78;21438;-81
2022/02/01 06:03:17;;;;;;;59.73;26.37;;;;;;;-1.62;85.09;98185.11;2288964;78;21430;-81
2022/02/01 06:06:18;;;;;;;69.27;29.37;;;;;;;-1.60;84.94;98184.79;2289245;78;20991;-81
2022/02/01 06:09:19;;;;;;;67.00;28.00;;;;;;;-1.60;84.79;98186.06;2289125;78;21365;-82
2022/02/01 06:12:19;;;;;;;75.77;28.73;;;;;;;-1.57;84.89;98198.13;2289386;78;21419;-81
2022/02/01 06:15:20;;;;;;;63.40;27.77;;;;;;;-1.57;84.80;98193.89;2288638;78;20955;-83
2022/02/01 06:18:20;;;;;;;62.27;25.57;;;;;;;-1.52;84.79;98201.39;2288862;78;20936;-81
2022/02/01 06:21:21;;;;;;;57.77;25.10;;;;;;;-1.51;84.42;98203.55;2289061;78;20947;-82
2022/02/01 06:24:22;;;;;;;66.33;27.83;;;;;;;-1.52;84.27;98200.11;2289049;78;21031;-80
2022/02/01 06:27:22;;;;;;;55.03;24.97;;;;;;;-1.51;84.12;98195.88;2288686;77;21502;-84
2022/02/01 06:30:23;;;;;;;51.30;24.10;;;;;;;-1.50;84.03;98190.83;2289491;77;20990;-83
2022/02/01 06:33:23;;;;;;;60.33;27.13;;;;;;;-1.53;83.55;98188.12;2289550;78;20971;-83
2022/02/01 06:36:24;;;;;;;57.40;26.37;;;;;;;-1.54;83.54;98190.20;2290353;78;21011;-82
2022/02/01 06:39:27;;;;;;;63.80;28.00;;;;;;;-1.53;83.33;98194.92;2289993;78;20960;-81
2022/02/01 06:42:26;;;;;;;70.70;27.87;;;;;;;-1.52;83.33;98202.67;2290197;78;20972;-82
2022/02/01 06:45:27;;;;;;;71.57;28.00;;;;;;;-1.51;83.19;98206.98;2290248;78;21013;-81
2022/02/01 06:48:27;;;;;;;80.13;32.53;;;;;;;-1.48;83.29;98205.85;2289573;78;20940;-83
2022/02/01 06:51:29;;;;;;;84.83;33.60;;;;;;;-1.40;83.30;98212.63;2267312;78;21603;-81
2022/02/01 06:54:29;;;;;;;96.57;36.83;;;;;;;-1.32;83.32;98210.91;2289282;78;20984;-80
2022/02/01 06:57:30;;;;;;;105.23;42.60;;;;;;;-1.21;83.32;98212.70;2289253;78;20943;-82
2022/02/01 07:00:30;;;;;;;90.10;36.37;;;;;;;-1.09;82.93;98208.55;2288274;78;20951;-82
2022/02/01 07:03:31;;;;;;;100.57;38.70;;;;;;;-1.03;82.79;98213.56;2287865;78;21667;-81
2022/02/01 07:06:33;;;;;;;86.20;33.70;;;;;;;-0.99;82.66;98210.33;2289253;78;21395;-81
2022/02/01 07:09:35;;;;;;;69.10;32.80;;;;;;;-0.93;82.54;98212.70;2289178;78;21464;-81
2022/02/01 07:12:36;;;;;;;75.93;34.13;;;;;;;-0.87;82.41;98212.58;2288751;78;21067;-81
2022/02/01 07:15:36;;;;;;;80.77;35.23;;;;;;;-0.83;82.39;98214.52;2288961;78;20928;-81
2022/02/01 07:18:37;;;;;;;83.63;35.47;;;;;;;-0.74;82.33;98211.09;2289100;78;20912;-81
2022/02/01 07:21:37;;;;;;;88.70;37.17;;;;;;;-0.69;81.98;98217.30;2289011;78;21003;-81
2022/02/01 07:24:51;;;;;;;96.00;36.70;;;;;;;-0.61;82.08;98219.34;2288989;78;20956;-82
2022/02/01 07:27:42;;;;;;;75.67;33.63;;;;;;;-0.49;82.05;98218.60;2287403;77;21007;-80
2022/02/01 07:30:43;;;;;;;67.10;29.67;;;;;;;-0.34;82.04;98222.73;2289016;78;21043;-81
2022/02/01 07:33:43;;;;;;;65.07;29.00;;;;;;;-0.27;81.43;98220.43;2289758;78;20944;-81
2022/02/01 07:36:46;;;;;;;61.80;27.13;;;;;;;-0.23;81.40;98228.33;2168716;81;21027;-80
2022/02/01 07:39:46;;;;;;;68.17;31.27;;;;;;;-0.19;81.16;98222.52;2169590;82;21422;-81
2022/02/01 07:45:53;;;;;;;73.37;30.07;;;;;;;-0.11;80.39;98234.39;2144074;82;21046;-83
2022/02/01 07:48:56;;;;;;;73.53;30.13;;;;;;;-0.08;80.76;98231.96;2168564;82;21099;-81
2022/02/01 07:51:58;;;;;;;61.00;27.40;;;;;;;-0.02;80.51;98227.97;2168204;82;21412;-81
2022/02/01 07:54:59;;;;;;;64.73;28.20;;;;;;;0.03;80.44;98231.17;2168760;82;21080;-82
2022/02/01 07:57:59;;;;;;;61.53;29.23;;;;;;;0.02;80.18;98225.57;2168872;82;20940;-82
2022/02/01 08:00:59;;;;;;;70.17;33.33;;;;;;;0.06;80.40;98221.92;2168529;82;21367;-79
2022/02/01 08:04:02;;;;;;;64.80;29.60;;;;;;;0.04;80.30;98218.81;2142649;82;21055;-80
2022/02/01 08:07:03;;;;;;;66.40;28.73;;;;;;;0.07;80.20;98221.52;2173464;82;21078;-82
2022/02/01 08:10:05;;;;;;;63.43;27.97;;;;;;;0.12;79.98;98218.73;2174721;82;20963;-84
2022/02/01 08:16:44;;;;;;;56.07;27.50;;;;;;;0.22;80.20;98214.06;2151085;82;21064;-82
2022/02/01 08:19:44;;;;;;;68.80;28.97;;;;;;;0.32;79.53;98215.31;2172995;82;21394;-82
2022/02/01 08:23:01;;;;;;;62.10;28.30;;;;;;;0.40;79.80;98218.20;2175391;82;21030;-82
2022/02/01 08:28:43;;;;;;;59.33;28.17;;;;;;;0.87;78.96;98230.02;2151961;82;21022;-82
2022/02/01 08:31:44;;;;;;;62.07;26.20;;;;;;;1.14;78.11;98220.35;2177079;82;20964;-83
2022/02/01 08:34:44;;;;;;;73.70;30.00;;;;;;;1.35;77.79;98222.86;2280538;78;20948;-83
2022/02/01 08:37:45;;;;;;;65.20;28.03;;;;;;;1.40;76.81;98222.63;2283167;77;21202;-83
2022/02/01 08:40:46;;;;;;;60.30;24.13;;;;;;;1.24;75.31;98225.91;2283805;77;21080;-81
2022/02/01 08:43:47;;;;;;;54.47;24.90;;;;;;;1.06;75.56;98216.20;2283996;78;20999;-82
2022/02/01 08:46:48;;;;;;;61.47;25.93;;;;;;;0.93;75.82;98223.84;2284430;77;20995;-82
2022/02/01 08:49:48;;;;;;;56.50;27.93;;;;;;;0.93;76.08;98216.54;2283296;77;20979;-82
2022/02/01 08:52:50;;;;;;;66.10;27.43;;;;;;;0.96;76.30;98226.94;2283751;77;20959;-83
2022/02/01 08:58:56;;;;;;;58.00;25.20;;;;;;;0.76;75.17;98222.67;2259710;78;20939;-83
2022/02/01 09:01:56;;;;;;;50.13;22.07;;;;;;;0.68;75.11;98220.20;2282765;77;20972;-82
2022/02/01 09:04:57;;;;;;;37.17;17.50;;;;;;;0.60;74.26;98216.91;2282664;78;21423;-83
2022/02/01 09:07:57;;;;;;;43.50;20.93;;;;;;;0.51;73.97;98220.39;2288890;78;20924;-82
2022/02/01 09:14:00;;;;;;;66.10;24.33;;;;;;;0.47;74.28;98218.92;2265897;78;21072;-82
2022/02/01 09:17:01;;;;;;;39.97;20.30;;;;;;;0.49;74.25;98218.17;2289165;78;20960;-82
2022/02/01 09:20:01;;;;;;;49.33;21.10;;;;;;;0.54;73.70;98217.95;2289002;78;21422;-83
2022/02/01 09:23:02;;;;;;;44.63;21.20;;;;;;;0.57;73.70;98218.48;2289096;77;20972;-82
2022/02/01 09:26:03;;;;;;;45.80;20.90;;;;;;;0.69;73.83;98224.12;2289231;78;21039;-83
2022/02/01 09:29:04;;;;;;;45.10;20.93;;;;;;;1.04;73.83;98229.81;2288454;78;20983;-83
2022/02/01 09:32:04;;;;;;;45.30;19.03;;;;;;;1.36;71.80;98242.62;2289866;78;20952;-83
2022/02/01 09:35:05;;;;;;;47.30;20.07;;;;;;;1.39;70.44;98246.59;2289002;78;20979;-83
2022/02/01 09:38:06;;;;;;;42.23;19.17;;;;;;;1.34;71.08;98238.70;2289053;78;20971;-83
2022/02/01 09:41:06;;;;;;;43.60;21.17;;;;;;;1.48;70.92;98237.94;2290244;78;21018;-85
2022/02/01 09:44:09;;;;;;;42.97;19.63;;;;;;;1.60;70.99;98237.98;2289715;78;21336;-83
2022/02/01 09:47:10;;;;;;;33.83;17.70;;;;;;;1.65;69.74;98235.58;2289752;78;20928;-83
2022/02/01 09:50:11;;;;;;;36.07;19.17;;;;;;;1.67;69.05;98224.94;2290098;77;21070;-85
2022/02/01 09:53:12;;;;;;;34.77;17.33;;;;;;;1.78;69.26;98223.66;2290358;78;21069;-84
2022/02/01 09:56:15;;;;;;;30.23;16.23;;;;;;;1.95;69.57;98211.39;2290430;78;20956;-84
2022/02/01 09:59:15;;;;;;;25.83;13.83;;;;;;;1.98;67.11;98227.36;2289799;78;21430;-83
2022/02/01 10:02:16;;;;;;;32.17;14.80;;;;;;;1.89;67.98;98215.03;2289867;78;21011;-83
2022/02/01 10:05:17;;;;;;;34.60;16.30;;;;;;;1.87;68.97;98219.25;2288339;77;21400;-83
2022/02/01 10:08:18;;;;;;;38.87;16.13;;;;;;;1.76;68.23;98216.70;2280361;78;20954;-84
2022/02/01 10:11:18;;;;;;;35.47;16.07;;;;;;;1.68;69.56;98213.83;2281221;78;20925;-83
2022/02/01 10:14:32;;;;;;;35.83;16.53;;;;;;;1.71;70.05;98208.79;2279449;78;21499;-80
2022/02/01 10:17:24;;;;;;;33.57;15.27;;;;;;;1.75;69.23;98208.11;2277888;78;21010;-83
2022/02/01 10:20:25;;;;;;;32.77;14.23;;;;;;;1.73;69.86;98204.58;2280430;78;20942;-83
2022/02/01 10:23:25;;;;;;;25.00;13.27;;;;;;;1.75;68.63;98205.54;2280398;78;20969;-83
2022/02/01 10:26:28;;;;;;;34.47;15.27;;;;;;;1.74;68.25;98206.77;2280481;78;21017;-84
2022/02/01 10:29:28;;;;;;;33.00;15.67;;;;;;;1.69;67.97;98201.42;2281421;78;20969;-85
2022/02/01 10:35:58;;;;;;;24.67;11.57;;;;;;;1.47;67.23;98186.03;2259533;78;21278;-83
2022/02/01 10:38:39;;;;;;;34.07;15.03;;;;;;;1.30;67.13;98191.84;2277294;78;21072;-83
2022/02/01 10:41:43;;;;;;;31.83;14.63;;;;;;;1.21;68.87;98183.37;2280749;78;20918;-84
2022/02/01 10:47:46;;;;;;;23.60;11.87;;;;;;;1.32;69.59;98171.32;2258195;78;21021;-84
2022/02/01 10:50:46;;;;;;;25.77;12.53;;;;;;;1.37;69.25;98167.23;2281610;78;20965;-84
2022/02/01 10:53:47;;;;;;;26.83;11.63;;;;;;;1.33;69.17;98166.64;2280058;78;20961;-82
2022/02/01 10:56:49;;;;;;;29.23;11.50;;;;;;;1.28;68.94;98167.35;2258206;78;21012;-84
2022/02/01 10:59:49;;;;;;;28.97;11.40;;;;;;;1.19;68.98;98147.73;2281258;78;20911;-84
2022/02/01 11:02:52;;;;;;;29.33;11.40;;;;;;;1.21;69.72;98147.78;2260454;78;20946;-83
2022/02/01 11:05:52;;;;;;;29.13;13.33;;;;;;;1.26;69.20;98153.56;2273509;77;20971;-83
2022/02/01 11:08:53;;;;;;;27.80;12.03;;;;;;;1.25;69.08;98149.66;2249384;78;21399;-83
2022/02/01 11:11:53;;;;;;;27.73;12.63;;;;;;;1.30;68.59;98147.25;2249534;79;20920;-82
2022/02/01 11:14:54;;;;;;;26.47;10.73;;;;;;;1.28;69.09;98151.92;2248882;78;21384;-84
2022/02/01 11:17:54;;;;;;;24.67;11.57;;;;;;;1.28;68.91;98151.92;2250525;79;20984;-83
2022/02/01 11:20:55;;;;;;;35.33;12.87;;;;;;;1.37;69.52;98152.67;2249905;78;20997;-84
2022/02/01 11:27:13;;;;;;;27.50;9.90;;;;;;;1.44;68.46;98152.08;2225701;79;20951;-82
2022/02/01 11:30:12;;;;;;;30.63;11.70;;;;;;;1.45;68.30;98140.09;2246362;79;21035;-81
2022/02/01 11:33:13;;;;;;;28.67;10.80;;;;;;;1.45;68.07;98133.66;2246704;78;21262;-81
2022/02/01 11:36:13;;;;;;;30.57;13.03;;;;;;;1.41;68.24;98129.23;2247778;78;21396;-82
2022/02/01 11:39:17;;;;;;;36.73;13.40;;;;;;;1.37;68.57;98120.94;2248519;78;20971;-82
2022/02/01 11:42:18;;;;;;;29.97;12.93;;;;;;;1.39;68.97;98112.46;2248492;79;21906;-83
2022/02/01 11:45:18;;;;;;;33.60;12.83;;;;;;;1.43;69.41;98114.73;2247675;79;21006;-82
2022/02/01 11:48:18;;;;;;;37.97;12.93;;;;;;;1.45;69.00;98119.11;2248507;79;20970;-82
2022/02/01 11:51:19;;;;;;;32.20;13.97;;;;;;;1.39;69.39;98112.46;2249126;79;20943;-84
2022/02/01 11:54:20;;;;;;;27.07;11.17;;;;;;;1.35;69.90;98104.58;2249546;79;20951;-81
2022/02/01 11:57:20;;;;;;;27.77;10.80;;;;;;;1.29;69.64;98100.09;2249518;78;21351;-83
2022/02/01 12:00:22;;;;;;;31.10;10.40;;;;;;;1.29;69.95;98093.66;2248947;79;20900;-81
2022/02/01 12:03:22;;;;;;;21.83;10.53;;;;;;;1.64;70.68;98085.91;2247955;79;21335;-82
2022/02/01 12:06:23;;;;;;;26.77;9.80;;;;;;;1.66;69.98;98090.69;2258032;77;21411;-82
2022/02/01 12:09:25;;;;;;;33.73;11.77;;;;;;;1.64;69.76;98088.48;2279750;77;20969;-82
2022/02/01 12:12:26;;;;;;;26.97;11.60;;;;;;;1.58;69.67;98077.97;2280111;78;21029;-82
2022/02/01 12:15:26;;;;;;;32.17;10.93;;;;;;;1.59;70.05;98073.30;2279873;78;21375;-84
2022/02/01 12:18:27;;;;;;;31.40;10.90;;;;;;;1.53;71.01;98066.24;2280419;78;20945;-82
2022/02/01 12:21:27;;;;;;;26.67;9.60;;;;;;;1.55;71.75;98064.59;2280030;78;20992;-82
2022/02/01 12:24:28;;;;;;;24.83;11.07;;;;;;;1.47;72.73;98064.74;2281152;77;20997;-82
2022/02/01 12:27:28;;;;;;;26.17;12.07;;;;;;;1.42;73.26;98062.42;2280475;78;20957;-83
2022/02/01 12:30:29;;;;;;;22.97;10.37;;;;;;;1.35;73.89;98053.16;2279655;78;20973;-81
2022/02/01 12:33:29;;;;;;;23.33;9.93;;;;;;;1.37;74.38;98037.37;2279236;78;20966;-82
2022/02/01 12:36:32;;;;;;;32.93;12.40;;;;;;;1.38;74.77;98022.41;2278633;77;22023;-83
2022/02/01 12:39:34;;;;;;;32.10;14.97;;;;;;;1.37;75.05;98017.67;2278716;78;21048;-82
2022/02/01 12:42:43;;;;;;;37.17;15.23;;;;;;;1.45;75.51;98024.36;2278450;78;20998;-82
2022/02/01 12:45:51;;;;;;;32.00;12.87;;;;;;;1.49;75.50;98024.93;2277829;78;21096;-84
2022/02/01 12:48:45;;;;;;;34.20;14.17;;;;;;;1.52;76.16;98012.17;2278173;78;20974;-82
2022/02/01 12:51:45;;;;;;;27.97;12.97;;;;;;;1.47;76.20;98024.00;2279573;78;21961;-82
2022/02/01 12:54:46;;;;;;;28.20;12.87;;;;;;;1.45;76.65;98021.80;2280233;78;21378;-82
2022/02/01 12:57:47;;;;;;;25.00;11.73;;;;;;;1.40;76.96;98019.06;2280148;78;21097;-82
2022/02/01 13:00:49;;;;;;;21.90;10.83;;;;;;;1.42;77.11;98015.26;2279458;78;20993;-82
2022/02/01 13:03:49;;;;;;;29.77;11.40;;;;;;;1.41;77.41;98013.09;2279009;78;21452;-82
2022/02/01 13:06:51;;;;;;;21.77;10.37;;;;;;;1.36;77.46;98002.19;2279551;78;21009;-83
2022/02/01 13:22:53;;;;;;;27.33;12.27;;;;;;;1.19;78.89;98001.61;2280021;78;20962;-83
2022/02/01 13:25:55;;;;;;;24.33;11.47;;;;;;;1.16;79.13;97995.95;2279738;78;21380;-82
2022/02/01 13:28:55;;;;;;;26.83;11.53;;;;;;;1.15;79.37;97989.06;2279002;78;20935;-84
2022/02/01 13:31:56;;;;;;;21.80;11.03;;;;;;;1.13;79.77;97988.13;2279076;78;20989;-83
2022/02/01 13:34:59;;;;;;;19.00;10.37;;;;;;;1.08;79.66;97979.80;2278547;78;20974;-83
2022/02/01 13:38:00;;;;;;;20.53;10.37;;;;;;;1.05;80.17;97970.28;2279088;78;20984;-84
2022/02/01 13:41:02;;;;;;;21.53;11.43;;;;;;;1.04;80.33;97976.25;2257801;78;21652;-81
2022/02/01 13:44:02;;;;;;;22.03;9.80;;;;;;;1.07;80.37;97971.63;2279098;78;20994;-83
2022/02/01 13:47:03;;;;;;;19.00;10.33;;;;;;;1.08;80.61;97965.25;2279059;77;21001;-83
2022/02/01 13:50:04;;;;;;;25.53;12.47;;;;;;;1.07;80.80;97962.22;2279310;78;20957;-83
2022/02/01 13:53:04;;;;;;;18.47;10.43;;;;;;;1.04;80.86;97960.83;2278714;78;21715;-82
2022/02/01 13:56:05;;;;;;;18.57;10.83;;;;;;;0.99;81.07;97953.78;2278957;78;20988;-84
2022/02/01 13:59:07;;;;;;;16.80;9.93;;;;;;;0.94;81.38;97948.48;2279108;78;20977;-82
2022/02/01 14:02:11;;;;;;;24.23;11.33;;;;;;;0.92;81.52;97941.13;2279007;78;21333;-82
2022/02/01 14:05:20;;;;;;;17.17;10.50;;;;;;;0.90;81.81;97935.06;2279031;78;21032;-84
2022/02/01 14:36:59;;;;;;;24.37;11.77;;;;;;;0.61;83.79;97892.91;2258851;78;20969;-83
2022/02/01 14:43:20;;;;;;;21.27;11.63;;;;;;;0.54;84.36;97896.95;2249687;79;21418;-84
2022/02/01 14:46:06;;;;;;;25.33;14.23;;;;;;;0.48;85.57;97885.19;2254496;78;20978;-84
2022/02/01 14:49:07;;;;;;;30.37;13.50;;;;;;;0.42;85.08;97882.80;2280943;78;21403;-83
2022/02/01 14:52:07;;;;;;;19.87;11.23;;;;;;;0.43;85.57;97875.56;2281270;78;20973;-85
2022/02/01 14:55:13;;;;;;;28.20;14.70;;;;;;;0.44;85.57;97878.19;2281236;78;20958;-84
2022/02/01 15:05:12;;;;;;;30.03;17.07;;;;;;;0.34;85.29;97870.11;2281668;78;21057;-82
2022/02/01 15:14:27;;;;;;;32.40;19.43;;;;;;;0.31;85.67;97851.61;2289212;77;21508;-85
2022/02/01 15:20:29;;;;;;;39.10;21.70;;;;;;;0.33;85.96;97846.53;2266967;78;21078;-85
2022/02/01 15:23:31;;;;;;;35.53;18.50;;;;;;;0.31;86.45;97836.22;2290093;78;21011;-85
2022/02/01 15:26:34;;;;;;;44.10;24.13;;;;;;;0.33;86.89;97835.86;2287885;78;22320;-83
2022/02/01 15:29:38;;;;;;;39.70;23.07;;;;;;;0.31;86.14;97826.82;2289662;77;20965;-84
2022/02/01 15:32:38;;;;;;;42.33;21.10;;;;;;;0.30;86.16;97840.88;2289582;78;20963;-85
2022/02/01 15:35:39;;;;;;;36.37;21.30;;;;;;;0.30;86.16;97823.79;2291223;78;21040;-83
2022/02/01 15:55:05;;;;;;;50.40;26.80;;;;;;;0.10;86.19;97810.66;2291484;77;20968;-84
2022/02/01 15:57:50;;;;;;;45.30;24.40;;;;;;;0.10;86.49;97807.22;2289087;78;20936;-85
2022/02/01 16:00:51;;;;;;;59.50;25.73;;;;;;;0.08;86.36;97796.03;2290752;78;21063;-85
2022/02/01 16:03:52;;;;;;;55.50;24.23;;;;;;;0.07;85.90;97789.15;2290302;78;21030;-84
2022/02/01 16:07:04;;;;;;;44.80;22.57;;;;;;;0.02;85.90;97778.72;2290843;78;21481;-84
2022/02/01 16:10:17;;;;;;;43.67;23.00;;;;;;;-0.03;85.96;97778.94;2289554;78;21056;-84
2022/02/01 16:13:12;;;;;;;52.10;23.70;;;;;;;-0.06;85.93;97773.28;2287869;78;20985;-85
2022/02/01 16:19:13;;;;;;;40.07;22.00;;;;;;;-0.15;85.77;97762.69;2260389;78;20997;-81
2022/02/01 16:22:14;;;;;;;31.27;17.77;;;;;;;-0.15;85.56;97751.56;2291886;76;20993;-85
2022/02/01 16:25:20;;;;;;;32.87;16.27;;;;;;;-0.14;85.60;97742.64;2258846;78;20978;-82
2022/02/01 16:28:21;;;;;;;28.67;15.93;;;;;;;-0.16;85.62;97735.30;2291993;78;20926;-80
2022/02/01 16:31:22;;;;;;;35.03;15.50;;;;;;;-0.17;85.34;97736.52;2291340;78;21025;-85
2022/02/01 16:34:25;;;;;;;36.50;18.30;;;;;;;-0.21;85.40;97729.13;2292014;78;21020;-84
2022/02/01 16:40:33;;;;;;;35.60;17.07;;;;;;;-0.28;85.71;97723.31;2260522;78;21417;-83
2022/02/01 16:43:35;;;;;;;36.13;18.73;;;;;;;-0.26;85.78;97720.40;2292184;77;21049;-84
2022/02/01 16:46:37;;;;;;;36.10;17.43;;;;;;;-0.23;85.74;97715.37;2292351;78;21092;-84
2022/02/01 16:49:37;;;;;;;30.30;15.70;;;;;;;-0.24;85.74;97705.94;2293340;77;20989;-83
2022/02/01 16:52:43;;;;;;;27.63;14.63;;;;;;;-0.26;85.67;97702.45;2292529;78;20926;-83
2022/02/01 16:58:53;;;;;;;27.37;13.83;;;;;;;-0.20;86.47;97694.97;2261680;78;21018;-82
2022/02/01 17:01:49;;;;;;;25.07;12.07;;;;;;;-0.20;85.60;97693.69;2290110;78;21423;-84